Time;durP1;ratioP1;P1;durP2;ratioP2;P2;SDS_P1;SDS_P2;PMS_P1;PMS_P2;Temp;Humidity;BMP_temperature;BMP_pressure;BME280_temperature;BME280_humidity;BME280_pressure;Samples;Min_cycle;Max_cycle;Signal;HPM_P1;HPM_P2
2024/04/05 00:01:55;;;;;;;0.50;0.30;;;13.20;99.90;;;;;;5124114;27;20641;-63
2024/04/05 00:04:23;;;;;;;0.50;0.20;;;13.20;99.90;;;;;;5118255;28;20846;-63
2024/04/05 00:06:49;;;;;;;0.67;0.40;;;13.10;99.90;;;;;;5130715;27;20475;-62
2024/04/05 00:09:16;;;;;;;0.70;0.30;;;13.10;99.90;;;;;;5134783;27;20471;-61
2024/04/05 00:11:43;;;;;;;0.50;0.30;;;13.00;99.90;;;;;;5138237;27;20452;-63
2024/04/05 00:14:11;;;;;;;0.70;0.30;;;13.00;99.90;;;;;;5138350;27;20491;-62
2024/04/05 00:16:37;;;;;;;0.97;0.20;;;12.90;99.90;;;;;;5129622;27;20444;-63
2024/04/05 00:19:05;;;;;;;0.50;0.20;;;12.90;99.90;;;;;;5133306;27;20441;-62
2024/04/05 00:21:31;;;;;;;0.30;0.20;;;12.90;99.90;;;;;;5125364;27;20516;-61
2024/04/05 00:24:00;;;;;;;0.70;0.30;;;12.90;99.90;;;;;;5137088;27;20452;-61
2024/04/05 00:26:28;;;;;;;0.67;0.20;;;12.90;99.90;;;;;;5118994;27;20448;-62
2024/04/05 00:28:56;;;;;;;0.50;0.27;;;12.90;99.90;;;;;;5131971;27;20431;-63
2024/04/05 00:31:24;;;;;;;0.30;0.17;;;12.90;99.90;;;;;;5125074;27;20884;-63
2024/04/05 00:33:54;;;;;;;2.73;0.30;;;12.90;99.90;;;;;;5126533;27;20723;-62
2024/04/05 00:36:21;;;;;;;0.33;0.20;;;12.90;99.90;;;;;;5130523;27;20487;-62
2024/04/05 00:38:49;;;;;;;0.70;0.20;;;12.90;99.90;;;;;;5125937;27;20451;-62
2024/04/05 00:41:15;;;;;;;0.30;0.20;;;12.90;99.90;;;;;;5122654;27;20452;-62
2024/04/05 00:43:43;;;;;;;1.10;0.30;;;12.90;99.90;;;;;;5130952;27;20988;-61
2024/04/05 00:46:09;;;;;;;0.40;0.20;;;12.90;99.90;;;;;;5131512;27;20424;-62
2024/04/05 00:48:39;;;;;;;0.40;0.20;;;12.90;99.90;;;;;;5128888;27;20537;-63
2024/04/05 00:51:10;;;;;;;1.50;0.30;;;12.90;99.90;;;;;;5124181;27;20475;-63
2024/04/05 00:53:38;;;;;;;0.70;0.30;;;13.00;99.90;;;;;;5125419;27;20774;-62
2024/04/05 00:56:05;;;;;;;0.40;0.20;;;13.00;99.90;;;;;;5125943;27;20458;-62
2024/04/05 00:58:33;;;;;;;1.60;0.30;;;13.00;99.90;;;;;;5123770;27;20540;-63
2024/04/05 01:01:00;;;;;;;0.40;0.20;;;13.00;99.90;;;;;;5123361;27;20870;-62
2024/04/05 01:03:27;;;;;;;0.80;0.27;;;13.10;99.90;;;;;;5117848;28;20481;-62
2024/04/05 01:05:56;;;;;;;1.20;0.40;;;13.10;99.90;;;;;;5117930;27;20520;-62
2024/04/05 01:08:24;;;;;;;1.37;0.30;;;13.10;99.90;;;;;;5118012;28;21004;-62
2024/04/05 01:10:51;;;;;;;0.50;0.20;;;13.10;99.90;;;;;;5128159;27;20480;-62
2024/04/05 01:13:19;;;;;;;0.40;0.20;;;13.10;99.90;;;;;;5129818;27;20515;-61
2024/04/05 01:15:45;;;;;;;0.97;0.20;;;13.10;99.90;;;;;;5128190;27;20731;-62
2024/04/05 01:18:12;;;;;;;1.37;0.30;;;13.10;99.90;;;;;;5126261;27;20448;-62
2024/04/05 01:20:39;;;;;;;1.77;0.30;;;13.20;99.90;;;;;;5123561;27;20848;-63
2024/04/05 01:23:10;;;;;;;1.63;0.20;;;13.10;99.90;;;;;;5125761;27;20826;-62
2024/04/05 01:25:38;;;;;;;0.40;0.20;;;13.20;99.90;;;;;;5127377;27;20834;-62
2024/04/05 01:28:12;;;;;;;0.40;0.20;;;13.20;99.90;;;;;;5125482;27;20488;-62
2024/04/05 01:30:39;;;;;;;0.53;0.30;;;13.20;99.90;;;;;;5124579;27;20451;-62
2024/04/05 01:33:07;;;;;;;0.60;0.30;;;13.20;99.90;;;;;;5131846;27;20454;-62
2024/04/05 01:35:33;;;;;;;1.07;0.30;;;13.20;99.90;;;;;;5134831;27;20452;-63
2024/04/05 01:38:01;;;;;;;0.50;0.20;;;13.30;99.90;;;;;;5119076;28;20767;-63
2024/04/05 01:40:28;;;;;;;0.40;0.20;;;13.20;99.90;;;;;;5126519;27;20443;-62
2024/04/05 01:42:56;;;;;;;0.50;0.30;;;13.20;99.90;;;;;;5139111;27;20729;-63
2024/04/05 01:45:23;;;;;;;4.20;0.30;;;13.20;99.90;;;;;;5133036;27;20445;-61
2024/04/05 01:47:50;;;;;;;0.50;0.30;;;13.20;99.90;;;;;;5117493;28;20588;-63
2024/04/05 01:50:17;;;;;;;0.60;0.20;;;13.20;99.90;;;;;;5118051;28;20456;-62
2024/04/05 01:52:44;;;;;;;0.60;0.33;;;13.20;99.90;;;;;;5117525;27;20440;-62
2024/04/05 01:55:11;;;;;;;0.83;0.30;;;13.20;99.90;;;;;;5124624;27;20440;-61
2024/04/05 01:57:38;;;;;;;0.60;0.30;;;13.20;99.90;;;;;;5116695;28;20495;-62
2024/04/05 02:00:08;;;;;;;0.43;0.20;;;13.10;99.90;;;;;;5117387;28;20453;-63
2024/04/05 02:02:35;;;;;;;0.50;0.20;;;13.10;99.90;;;;;;5118027;28;20456;-62
2024/04/05 02:05:03;;;;;;;0.30;0.20;;;13.10;99.90;;;;;;5131369;27;21075;-63
2024/04/05 02:07:31;;;;;;;0.40;0.30;;;13.10;99.90;;;;;;5123608;27;21657;-63
2024/04/05 02:09:57;;;;;;;0.40;0.20;;;13.10;99.90;;;;;;5122762;27;20468;-62
2024/04/05 02:12:28;;;;;;;0.60;0.30;;;13.10;99.90;;;;;;5116650;28;20440;-62
2024/04/05 02:15:10;;;;;;;1.13;0.30;;;13.10;99.90;;;;;;5176283;27;20602;-63
2024/04/05 02:17:37;;;;;;;0.60;0.37;;;13.10;99.90;;;;;;5167816;27;20868;-62
2024/04/05 02:20:06;;;;;;;0.53;0.30;;;13.10;99.90;;;;;;5154355;27;20427;-63
2024/04/05 02:22:33;;;;;;;1.80;0.30;;;13.00;99.90;;;;;;5167124;27;20703;-62
2024/04/05 02:25:05;;;;;;;1.37;0.30;;;13.10;99.90;;;;;;5174780;27;20766;-65
2024/04/05 02:27:35;;;;;;;0.50;0.20;;;13.10;99.90;;;;;;5162725;27;20519;-63
2024/04/05 02:30:04;;;;;;;0.47;0.30;;;13.10;99.90;;;;;;5165393;27;20438;-63
2024/04/05 02:32:32;;;;;;;1.07;0.20;;;13.10;99.90;;;;;;5156804;27;20478;-63
2024/04/05 02:34:59;;;;;;;1.27;0.20;;;13.10;99.90;;;;;;5154883;27;21163;-62
2024/04/05 02:37:25;;;;;;;0.50;0.30;;;13.10;99.90;;;;;;5167147;27;20454;-63
2024/04/05 02:39:53;;;;;;;0.40;0.20;;;13.00;99.90;;;;;;5175402;27;20442;-63
2024/04/05 02:42:19;;;;;;;0.60;0.30;;;13.10;99.90;;;;;;5174988;27;20534;-63
2024/04/05 02:44:46;;;;;;;2.53;0.30;;;13.10;99.90;;;;;;5174649;27;20446;-63
2024/04/05 02:47:12;;;;;;;0.57;0.30;;;13.10;99.90;;;;;;5173552;27;20464;-64
2024/04/05 02:49:41;;;;;;;0.53;0.23;;;13.10;99.90;;;;;;5174718;27;20836;-63
2024/04/05 02:52:08;;;;;;;0.60;0.30;;;13.10;99.90;;;;;;5175151;27;20763;-62
2024/04/05 02:54:36;;;;;;;0.30;0.20;;;13.10;99.90;;;;;;5174358;27;20478;-63
2024/04/05 02:57:02;;;;;;;0.70;0.40;;;13.10;99.90;;;;;;5173582;27;20543;-63
2024/04/05 02:59:29;;;;;;;1.40;0.20;;;13.10;99.90;;;;;;5174545;27;20442;-62
2024/04/05 03:01:56;;;;;;;0.43;0.20;;;13.10;99.90;;;;;;5174070;27;20442;-61
2024/04/05 03:04:23;;;;;;;1.73;0.20;;;13.10;99.90;;;;;;5174030;27;20905;-61
2024/04/05 03:06:51;;;;;;;0.40;0.20;;;13.10;99.90;;;;;;5174176;27;20442;-63
2024/04/05 03:09:18;;;;;;;0.70;0.30;;;13.10;99.90;;;;;;5175695;27;20532;-62
2024/04/05 03:11:44;;;;;;;0.80;0.27;;;13.10;99.90;;;;;;5174851;27;20730;-64
2024/04/05 03:14:11;;;;;;;2.17;0.27;;;13.10;99.90;;;;;;5163751;27;20479;-63
2024/04/05 03:16:37;;;;;;;0.63;0.33;;;13.20;99.90;;;;;;5171980;27;21047;-61
2024/04/05 03:19:04;;;;;;;0.83;0.23;;;13.20;99.90;;;;;;5173561;27;20437;-63
2024/04/05 03:21:30;;;;;;;1.37;0.40;;;13.20;99.90;;;;;;5172430;27;20737;-63
2024/04/05 03:23:58;;;;;;;0.50;0.30;;;13.10;99.90;;;;;;5172498;27;20442;-61
2024/04/05 03:26:24;;;;;;;0.50;0.23;;;13.10;99.90;;;;;;5159117;27;20449;-63
2024/04/05 03:28:51;;;;;;;0.83;0.30;;;13.10;99.90;;;;;;5157347;27;20446;-62
2024/04/05 03:31:18;;;;;;;1.33;0.30;;;13.10;99.90;;;;;;5157187;27;20442;-62
2024/04/05 03:33:45;;;;;;;0.40;0.20;;;13.10;99.90;;;;;;5159516;27;20467;-62
2024/04/05 03:36:11;;;;;;;1.00;0.30;;;13.10;99.90;;;;;;5160172;27;20450;-63
2024/04/05 03:38:38;;;;;;;2.80;0.30;;;13.10;99.90;;;;;;5159540;27;20910;-63
2024/04/05 03:41:06;;;;;;;0.50;0.30;;;13.10;99.90;;;;;;5159458;27;20443;-63
2024/04/05 03:43:33;;;;;;;0.43;0.30;;;13.10;99.90;;;;;;5158624;27;20446;-63
2024/04/05 03:45:59;;;;;;;0.60;0.30;;;13.10;99.90;;;;;;5159729;27;20454;-64
2024/04/05 03:48:26;;;;;;;1.90;0.40;;;13.20;99.90;;;;;;5157929;27;20453;-62
2024/04/05 03:50:52;;;;;;;0.77;0.37;;;13.10;99.90;;;;;;5157946;27;20438;-62
2024/04/05 03:53:21;;;;;;;0.80;0.30;;;13.10;99.90;;;;;;5157067;27;20969;-62
2024/04/05 03:55:53;;;;;;;1.20;0.40;;;13.10;99.90;;;;;;5157391;27;20950;-63
2024/04/05 03:58:21;;;;;;;0.50;0.30;;;13.10;99.90;;;;;;5158690;27;20438;-62
2024/04/05 04:00:50;;;;;;;0.73;0.40;;;13.10;99.90;;;;;;5158790;27;20451;-63
2024/04/05 04:03:17;;;;;;;0.40;0.23;;;13.00;99.90;;;;;;5159570;27;20462;-62
2024/04/05 04:05:44;;;;;;;0.50;0.27;;;12.90;99.90;;;;;;5159973;27;20447;-62
2024/04/05 04:08:11;;;;;;;0.70;0.30;;;12.90;99.90;;;;;;5157947;27;20543;-62
2024/04/05 04:10:38;;;;;;;0.60;0.40;;;12.90;99.90;;;;;;5159476;27;20435;-61
2024/04/05 04:13:05;;;;;;;0.63;0.30;;;13.00;99.90;;;;;;5158599;27;20471;-63
2024/04/05 04:15:33;;;;;;;0.70;0.30;;;13.00;99.90;;;;;;5158598;27;20458;-62
2024/04/05 04:18:00;;;;;;;0.50;0.30;;;12.90;99.90;;;;;;5158908;27;20505;-62
2024/04/05 04:20:26;;;;;;;0.50;0.30;;;12.90;99.90;;;;;;5159339;27;20482;-61
2024/04/05 04:22:53;;;;;;;0.60;0.30;;;12.90;99.90;;;;;;5159707;27;20848;-62
2024/04/05 04:25:21;;;;;;;0.60;0.40;;;12.90;99.90;;;;;;5159507;27;20435;-63
2024/04/05 04:27:48;;;;;;;0.60;0.40;;;12.80;99.90;;;;;;5160216;27;20449;-62
2024/04/05 04:30:15;;;;;;;0.67;0.30;;;12.80;99.90;;;;;;5158885;27;20457;-63
2024/04/05 04:32:43;;;;;;;0.50;0.30;;;12.80;99.90;;;;;;5157736;27;20455;-62
2024/04/05 04:35:09;;;;;;;1.47;0.33;;;12.80;99.90;;;;;;5157287;27;20490;-62
2024/04/05 04:37:36;;;;;;;0.63;0.33;;;12.70;99.90;;;;;;5157008;27;20446;-61
2024/04/05 04:40:03;;;;;;;0.70;0.37;;;12.70;99.90;;;;;;5157110;27;20438;-63
2024/04/05 04:42:30;;;;;;;0.60;0.20;;;12.70;99.90;;;;;;5157344;27;20482;-62
2024/04/05 04:44:57;;;;;;;1.60;0.30;;;12.60;99.90;;;;;;5156841;27;20447;-63
2024/04/05 04:47:27;;;;;;;0.60;0.40;;;12.60;99.90;;;;;;5158109;27;20531;-63
2024/04/05 04:49:54;;;;;;;0.60;0.30;;;12.60;99.90;;;;;;5157205;27;20450;-61
2024/04/05 04:52:21;;;;;;;0.60;0.30;;;12.70;99.90;;;;;;5158007;27;20451;-63
2024/04/05 04:54:47;;;;;;;3.33;0.50;;;12.70;99.90;;;;;;5157444;27;20908;-62
2024/04/05 04:57:14;;;;;;;1.67;0.37;;;12.70;99.90;;;;;;5157672;27;20451;-62
2024/04/05 04:59:40;;;;;;;0.40;0.30;;;12.70;99.90;;;;;;5156559;27;20458;-63
2024/04/05 05:02:08;;;;;;;0.53;0.27;;;12.70;99.90;;;;;;5157355;27;20447;-61
2024/04/05 05:04:34;;;;;;;0.80;0.40;;;12.70;99.90;;;;;;5157229;27;20526;-63
2024/04/05 05:07:03;;;;;;;2.10;0.30;;;12.80;99.90;;;;;;5157255;27;20457;-62
2024/04/05 05:09:29;;;;;;;0.50;0.30;;;12.80;99.90;;;;;;5157591;27;20439;-62
2024/04/05 05:11:56;;;;;;;0.47;0.20;;;12.80;99.90;;;;;;5158675;27;20703;-62
2024/04/05 05:14:23;;;;;;;1.97;0.43;;;12.70;99.90;;;;;;5157601;27;20491;-62
2024/04/05 05:16:50;;;;;;;2.80;0.40;;;12.80;99.90;;;;;;5157993;27;20439;-63
2024/04/05 05:19:16;;;;;;;1.13;0.30;;;12.70;99.90;;;;;;5156382;27;20473;-63
2024/04/05 05:21:43;;;;;;;1.20;0.33;;;12.70;99.90;;;;;;5154259;27;20470;-62
2024/04/05 05:24:11;;;;;;;0.50;0.30;;;12.70;99.90;;;;;;5145904;27;20440;-63
2024/04/05 05:26:38;;;;;;;2.00;0.40;;;12.80;99.90;;;;;;5131603;27;20484;-63
2024/04/05 05:29:04;;;;;;;0.93;0.37;;;12.80;99.90;;;;;;5133110;27;20455;-61
2024/04/05 05:31:31;;;;;;;0.50;0.30;;;12.80;99.90;;;;;;5133625;27;20522;-61
2024/04/05 05:33:57;;;;;;;6.77;0.30;;;12.80;99.90;;;;;;5140995;27;20485;-63
2024/04/05 05:36:24;;;;;;;0.57;0.40;;;12.80;99.90;;;;;;5144163;27;20594;-61
2024/04/05 05:38:50;;;;;;;0.50;0.30;;;12.90;99.90;;;;;;5154766;27;20456;-63
2024/04/05 05:41:19;;;;;;;0.80;0.30;;;12.90;99.90;;;;;;5157233;27;20468;-62
2024/04/05 05:43:44;;;;;;;0.50;0.30;;;13.00;99.90;;;;;;5156698;27;20431;-62
2024/04/05 05:46:11;;;;;;;1.57;0.30;;;13.00;99.90;;;;;;5156226;27;20598;-61
2024/04/05 05:48:37;;;;;;;1.90;0.30;;;13.00;99.90;;;;;;5156508;27;20449;-62
2024/04/05 05:51:05;;;;;;;0.47;0.20;;;13.10;99.90;;;;;;5156272;27;20728;-63
2024/04/05 05:53:31;;;;;;;0.40;0.30;;;13.10;99.90;;;;;;5155990;27;20453;-64
2024/04/05 05:55:58;;;;;;;1.63;0.30;;;13.10;99.90;;;;;;5155438;27;20465;-62
2024/04/05 05:58:25;;;;;;;0.73;0.30;;;13.10;99.90;;;;;;5154743;27;20446;-61
2024/04/05 06:00:52;;;;;;;0.60;0.30;;;13.20;99.90;;;;;;5154970;27;20450;-61
2024/04/05 06:03:18;;;;;;;3.53;0.40;;;13.20;99.90;;;;;;5154812;27;20447;-61
2024/04/05 06:05:51;;;;;;;1.13;0.40;;;13.30;99.90;;;;;;5155935;27;20539;-61
2024/04/05 06:08:17;;;;;;;0.40;0.30;;;13.40;99.90;;;;;;5154797;27;20451;-62
2024/04/05 06:10:54;;;;;;;0.53;0.20;;;13.50;99.90;;;;;;5153996;27;20462;-62
2024/04/05 06:13:20;;;;;;;0.60;0.30;;;13.60;99.90;;;;;;5155603;27;20531;-63
2024/04/05 06:15:54;;;;;;;0.50;0.30;;;13.70;99.90;;;;;;5156609;27;20483;-62
2024/04/05 06:18:20;;;;;;;0.50;0.20;;;13.70;99.90;;;;;;5156731;27;20454;-62
2024/04/05 06:20:53;;;;;;;0.40;0.20;;;13.70;99.90;;;;;;5155567;27;20443;-62
2024/04/05 06:23:19;;;;;;;0.40;0.20;;;13.80;99.90;;;;;;5155723;27;20443;-63
2024/04/05 06:25:57;;;;;;;1.17;0.30;;;13.80;99.90;;;;;;5154817;27;20839;-63
2024/04/05 06:28:23;;;;;;;0.60;0.20;;;13.80;99.90;;;;;;5152916;27;20427;-63
2024/04/05 06:30:50;;;;;;;0.73;0.30;;;13.90;99.90;;;;;;5157866;27;20453;-64
2024/04/05 06:33:18;;;;;;;0.70;0.33;;;13.90;99.90;;;;;;5157404;27;20447;-64
2024/04/05 06:35:45;;;;;;;0.63;0.23;;;13.90;99.90;;;;;;5155741;27;20510;-65
2024/04/05 06:38:11;;;;;;;0.40;0.20;;;14.00;99.90;;;;;;5156640;27;20469;-64
2024/04/05 06:40:39;;;;;;;0.40;0.30;;;14.00;99.90;;;;;;5155443;27;20427;-62
2024/04/05 06:43:06;;;;;;;0.53;0.30;;;14.20;99.90;;;;;;5156003;27;20513;-64
2024/04/05 06:45:33;;;;;;;0.50;0.20;;;14.30;99.90;;;;;;5157224;27;20463;-63
2024/04/05 06:48:02;;;;;;;0.30;0.20;;;14.30;99.90;;;;;;5155354;27;21015;-64
2024/04/05 06:50:32;;;;;;;1.00;0.40;;;14.50;99.90;;;;;;5154928;27;20447;-64
2024/04/05 06:52:59;;;;;;;0.80;0.20;;;14.60;99.90;;;;;;5155274;27;20562;-65
2024/04/05 06:55:26;;;;;;;1.90;0.30;;;14.70;99.90;;;;;;5153565;27;20541;-65
2024/04/05 06:57:53;;;;;;;1.13;0.37;;;14.80;99.90;;;;;;5150735;27;20721;-67
2024/04/05 07:00:19;;;;;;;0.50;0.30;;;14.90;99.90;;;;;;5155787;27;20442;-66
2024/04/05 07:02:47;;;;;;;0.50;0.30;;;15.00;99.90;;;;;;5160176;27;20530;-67
2024/04/05 07:05:14;;;;;;;0.50;0.30;;;15.10;99.90;;;;;;5160386;27;20519;-66
2024/04/05 07:07:42;;;;;;;0.40;0.20;;;15.10;99.90;;;;;;5155188;27;20796;-66
2024/04/05 07:10:09;;;;;;;1.60;0.30;;;15.10;99.90;;;;;;5155477;27;20468;-63
2024/04/05 07:12:36;;;;;;;0.50;0.30;;;15.20;99.90;;;;;;5159162;27;20446;-63
2024/04/05 07:15:02;;;;;;;0.77;0.20;;;15.30;99.90;;;;;;5158698;27;20641;-64
2024/04/05 07:17:29;;;;;;;0.60;0.20;;;15.30;99.90;;;;;;5160439;27;20438;-64
2024/04/05 07:19:55;;;;;;;0.50;0.30;;;15.30;99.90;;;;;;5158458;27;20446;-63
2024/04/05 07:22:22;;;;;;;0.40;0.20;;;15.40;99.90;;;;;;5159229;27;20705;-64
2024/04/05 07:24:50;;;;;;;0.50;0.23;;;15.40;99.90;;;;;;5157246;27;20437;-63
2024/04/05 07:27:17;;;;;;;0.60;0.30;;;15.50;99.90;;;;;;5156547;27;20554;-64
2024/04/05 07:29:45;;;;;;;0.70;0.30;;;15.60;99.90;;;;;;5157863;27;20451;-64
2024/04/05 07:32:12;;;;;;;0.40;0.30;;;15.70;99.90;;;;;;5156504;27;20882;-64
2024/04/05 07:34:38;;;;;;;0.60;0.20;;;15.80;99.90;;;;;;5156372;27;20481;-64
2024/04/05 07:37:05;;;;;;;0.43;0.30;;;16.00;99.90;;;;;;5157003;27;20474;-65
2024/04/05 07:39:31;;;;;;;0.40;0.20;;;16.10;99.90;;;;;;5156626;27;20460;-64
2024/04/05 07:41:59;;;;;;;0.50;0.20;;;16.20;99.90;;;;;;5157352;27;20435;-66
2024/04/05 07:44:25;;;;;;;0.40;0.20;;;16.20;99.90;;;;;;5156482;27;20864;-67
2024/04/05 07:46:52;;;;;;;0.30;0.20;;;16.20;99.90;;;;;;5157929;27;20499;-68
2024/04/05 07:49:18;;;;;;;1.23;0.20;;;16.30;99.90;;;;;;5157886;27;20491;-68
2024/04/05 07:51:45;;;;;;;1.07;0.30;;;16.40;99.90;;;;;;5158907;27;20447;-68
2024/04/05 07:54:12;;;;;;;0.30;0.20;;;16.40;99.90;;;;;;5158054;27;20474;-67
2024/04/05 07:56:39;;;;;;;0.53;0.20;;;16.40;99.90;;;;;;5159089;27;20774;-67
2024/04/05 07:59:06;;;;;;;0.50;0.23;;;16.40;99.90;;;;;;5159959;27;20455;-65
2024/04/05 08:01:33;;;;;;;0.50;0.30;;;16.40;99.90;;;;;;5152306;27;20454;-69
2024/04/05 08:04:00;;;;;;;0.50;0.20;;;16.40;99.90;;;;;;5158271;27;20443;-67
2024/04/05 08:06:27;;;;;;;0.50;0.20;;;16.40;99.90;;;;;;5152824;27;20453;-67
2024/04/05 08:08:53;;;;;;;0.70;0.30;;;16.40;99.90;;;;;;5155864;27;20733;-65
2024/04/05 08:11:20;;;;;;;1.07;0.30;;;16.40;99.90;;;;;;5156339;27;20832;-68
2024/04/05 08:13:46;;;;;;;0.60;0.37;;;16.50;99.90;;;;;;5156852;27;20485;-67
2024/04/05 08:16:14;;;;;;;0.40;0.20;;;16.50;99.90;;;;;;5158975;27;20781;-67
2024/04/05 08:18:40;;;;;;;1.43;0.30;;;16.60;99.90;;;;;;5157081;27;20447;-66
2024/04/05 08:21:06;;;;;;;0.30;0.20;;;16.70;99.90;;;;;;5157813;27;20499;-67
2024/04/05 08:23:33;;;;;;;1.40;0.30;;;16.70;99.90;;;;;;5157750;27;20479;-67
2024/04/05 08:26:01;;;;;;;0.40;0.20;;;16.80;99.90;;;;;;5157107;27;20439;-67
2024/04/05 08:28:28;;;;;;;1.20;0.20;;;16.90;99.90;;;;;;5156002;27;20962;-68
2024/04/05 08:30:54;;;;;;;0.60;0.20;;;16.90;99.90;;;;;;5158600;27;20524;-67
2024/04/05 08:33:22;;;;;;;0.50;0.27;;;16.90;99.90;;;;;;5158831;27;20451;-67
2024/04/05 08:35:52;;;;;;;0.40;0.20;;;17.10;99.90;;;;;;5159310;27;20474;-67
2024/04/05 08:38:19;;;;;;;0.70;0.30;;;17.10;99.90;;;;;;5160015;27;20458;-67
2024/04/05 08:40:45;;;;;;;0.50;0.27;;;17.30;99.90;;;;;;5158421;27;20435;-68
2024/04/05 08:43:16;;;;;;;0.40;0.30;;;17.40;99.90;;;;;;5155882;27;20464;-67
2024/04/05 08:45:44;;;;;;;0.40;0.20;;;17.60;99.90;;;;;;5153236;27;20482;-69
2024/04/05 08:48:12;;;;;;;1.63;0.20;;;17.60;99.90;;;;;;5165879;27;20450;-69
2024/04/05 08:50:39;;;;;;;0.40;0.20;;;17.70;99.90;;;;;;5165412;27;21009;-69
2024/04/05 08:53:08;;;;;;;0.40;0.20;;;17.70;99.90;;;;;;5159353;27;20879;-70
2024/04/05 08:55:35;;;;;;;0.60;0.30;;;17.90;99.90;;;;;;5157668;27;20479;-69
2024/04/05 08:58:02;;;;;;;0.50;0.30;;;18.00;99.90;;;;;;5157504;27;20511;-68
2024/04/05 09:00:28;;;;;;;0.77;0.20;;;18.00;99.90;;;;;;5157020;27;20860;-69
2024/04/05 09:02:56;;;;;;;1.00;0.20;;;18.20;99.90;;;;;;5157691;27;20731;-69
2024/04/05 09:05:23;;;;;;;0.57;0.30;;;18.30;99.90;;;;;;5157656;27;20443;-69
2024/04/05 09:08:02;;;;;;;0.50;0.20;;;18.30;99.90;;;;;;5157245;27;21001;-69
2024/04/05 09:10:28;;;;;;;0.50;0.20;;;18.30;99.90;;;;;;5156258;27;20446;-70
2024/04/05 09:12:56;;;;;;;0.50;0.20;;;18.40;99.90;;;;;;5150961;27;20886;-70
2024/04/05 09:15:24;;;;;;;0.50;0.30;;;18.40;99.90;;;;;;5158518;27;20799;-70
2024/04/05 09:17:51;;;;;;;0.93;0.30;;;18.40;99.90;;;;;;5159294;27;20788;-69
2024/04/05 09:20:19;;;;;;;0.40;0.20;;;18.60;99.90;;;;;;5152956;27;20515;-70
2024/04/05 09:22:48;;;;;;;0.70;0.30;;;18.70;99.90;;;;;;5152785;27;20431;-71
2024/04/05 09:25:16;;;;;;;0.50;0.30;;;18.70;99.90;;;;;;5155875;27;20479;-70
2024/04/05 09:27:43;;;;;;;0.43;0.20;;;18.80;99.90;;;;;;5156564;27;21092;-70
2024/04/05 09:30:10;;;;;;;3.83;0.30;;;18.90;99.90;;;;;;5156715;27;20446;-69
2024/04/05 09:32:37;;;;;;;0.50;0.27;;;19.00;99.90;;;;;;5157211;27;20454;-69
2024/04/05 09:35:08;;;;;;;0.80;0.30;;;19.10;99.90;;;;;;5156255;27;20489;-70
2024/04/05 09:37:36;;;;;;;0.43;0.30;;;19.20;99.90;;;;;;5156541;27;20439;-69
2024/04/05 09:40:04;;;;;;;0.50;0.23;;;19.30;99.90;;;;;;5154743;27;20542;-70
2024/04/05 09:42:34;;;;;;;1.13;0.23;;;19.40;99.90;;;;;;5147821;27;20455;-70
2024/04/05 09:45:02;;;;;;;0.50;0.30;;;19.60;99.90;;;;;;5153956;27;20790;-71
2024/04/05 09:47:32;;;;;;;0.50;0.30;;;19.70;99.90;;;;;;5154493;27;20461;-70
2024/04/05 09:50:00;;;;;;;0.40;0.20;;;19.90;99.90;;;;;;5156138;27;20442;-70
2024/04/05 09:52:40;;;;;;;0.40;0.20;;;19.90;99.90;;;;;;5156260;27;20442;-70
2024/04/05 09:55:08;;;;;;;1.70;0.30;;;20.00;99.90;;;;;;5156395;27;20765;-69
2024/04/05 09:57:37;;;;;;;0.50;0.30;;;20.00;99.90;;;;;;5157467;27;20573;-70
2024/04/05 10:00:14;;;;;;;0.50;0.27;;;20.00;99.90;;;;;;5156484;27;20455;-70
2024/04/05 10:02:43;;;;;;;0.50;0.30;;;20.10;99.90;;;;;;5155897;27;20462;-69
2024/04/05 10:05:12;;;;;;;0.87;0.30;;;20.20;99.90;;;;;;5153750;27;20442;-69
2024/04/05 10:07:39;;;;;;;1.40;0.30;;;20.30;99.90;;;;;;5155134;27;20447;-68
2024/04/05 10:10:09;;;;;;;0.50;0.20;;;20.50;99.90;;;;;;5159318;27;20539;-67
2024/04/05 10:12:38;;;;;;;0.50;0.30;;;20.60;99.90;;;;;;5154947;27;20533;-70
2024/04/05 10:15:04;;;;;;;0.70;0.30;;;20.80;99.90;;;;;;5111928;28;20910;-70
2024/04/05 10:17:32;;;;;;;0.40;0.20;;;21.00;99.90;;;;;;5108937;28;20553;-67
2024/04/05 10:20:03;;;;;;;0.47;0.30;;;21.10;99.90;;;;;;5110520;28;20487;-69
2024/04/05 10:22:32;;;;;;;0.60;0.30;;;21.30;99.90;;;;;;5104685;28;20878;-69
2024/04/05 10:24:59;;;;;;;0.53;0.30;;;21.50;99.90;;;;;;5107643;28;20792;-68
2024/04/05 10:27:27;;;;;;;0.57;0.30;;;21.70;99.90;;;;;;5109064;28;20452;-68
2024/04/05 10:30:02;;;;;;;0.57;0.20;;;21.80;99.90;;;;;;5112488;28;20467;-70
2024/04/05 10:32:29;;;;;;;1.63;0.30;;;21.90;99.90;;;;;;5113910;28;20729;-70
2024/04/05 10:35:06;;;;;;;0.60;0.30;;;22.20;99.90;;;;;;5113595;28;20618;-69
2024/04/05 10:37:34;;;;;;;0.60;0.30;;;22.60;99.90;;;;;;5118094;28;20766;-70
2024/04/05 10:40:06;;;;;;;0.40;0.20;;;22.90;99.90;;;;;;5118448;28;20456;-68
2024/04/05 10:42:34;;;;;;;0.40;0.20;;;22.80;98.40;;;;;;5114664;28;20444;-68
2024/04/05 10:45:04;;;;;;;0.40;0.20;;;22.70;96.50;;;;;;5116499;28;20460;-69
2024/04/05 10:47:33;;;;;;;0.40;0.20;;;22.50;94.70;;;;;;5118794;27;20539;-60
2024/04/05 10:50:00;;;;;;;0.30;0.10;;;22.50;95.70;;;;;;5118443;27;20539;-60
2024/04/05 10:52:27;;;;;;;0.30;0.10;;;22.30;96.40;;;;;;5117953;27;20448;-61
2024/04/05 10:54:53;;;;;;;0.73;0.20;;;22.40;94.60;;;;;;5119014;27;20484;-60
2024/04/05 10:57:20;;;;;;;0.97;0.20;;;22.50;94.40;;;;;;5117257;28;20441;-60
2024/04/05 10:59:48;;;;;;;0.50;0.20;;;22.50;94.30;;;;;;5117669;28;20489;-59
2024/04/05 11:02:16;;;;;;;0.40;0.20;;;22.70;94.40;;;;;;5118659;28;20468;-59
2024/04/05 11:04:43;;;;;;;0.40;0.20;;;22.80;93.70;;;;;;5117111;28;20839;-60
2024/04/05 11:07:11;;;;;;;1.27;0.20;;;22.60;93.30;;;;;;5115137;28;20464;-60
2024/04/05 11:09:37;;;;;;;0.40;0.20;;;22.60;92.60;;;;;;5110412;28;20452;-59
2024/04/05 11:12:05;;;;;;;0.40;0.20;;;22.60;92.90;;;;;;5118878;28;20436;-63
2024/04/05 11:14:31;;;;;;;0.70;0.40;;;22.80;91.60;;;;;;5151324;27;20573;-65
2024/04/05 11:17:00;;;;;;;0.40;0.30;;;22.80;92.10;;;;;;5160614;27;20544;-63
2024/04/05 11:19:29;;;;;;;0.40;0.30;;;22.80;90.60;;;;;;5154552;27;20443;-65
2024/04/05 11:22:04;;;;;;;0.40;0.20;;;22.90;89.10;;;;;;5145344;27;20456;-66
2024/04/05 11:24:30;;;;;;;1.43;0.10;;;22.90;90.00;;;;;;5161477;27;20434;-66
2024/04/05 11:26:57;;;;;;;0.40;0.10;;;23.00;88.00;;;;;;5153983;27;20736;-65
2024/04/05 11:29:23;;;;;;;0.50;0.20;;;22.80;88.30;;;;;;5161398;27;20455;-64
2024/04/05 11:31:50;;;;;;;0.40;0.20;;;22.60;85.60;;;;;;5161383;27;20446;-64
2024/04/05 11:34:16;;;;;;;0.80;0.17;;;22.60;85.20;;;;;;5157837;27;20485;-64
2024/04/05 11:36:45;;;;;;;0.50;0.20;;;22.60;85.50;;;;;;5160593;27;20903;-64
2024/04/05 11:39:14;;;;;;;0.37;0.20;;;22.60;85.50;;;;;;5158589;27;20441;-65
2024/04/05 11:41:41;;;;;;;0.97;0.20;;;22.70;84.00;;;;;;5153632;27;20448;-66
2024/04/05 11:44:07;;;;;;;0.30;0.20;;;22.70;85.80;;;;;;5148780;27;20469;-67
2024/04/05 11:46:36;;;;;;;0.40;0.20;;;22.50;85.20;;;;;;5140035;27;20436;-66
2024/04/05 11:49:03;;;;;;;0.50;0.23;;;22.50;85.50;;;;;;5148394;27;20456;-65
2024/04/05 11:51:30;;;;;;;1.87;0.20;;;22.30;84.70;;;;;;5155920;27;20855;-65
2024/04/05 11:53:58;;;;;;;0.37;0.20;;;22.20;87.30;;;;;;5156531;27;20701;-65
2024/04/05 11:56:25;;;;;;;0.70;0.17;;;22.10;86.90;;;;;;5156389;27;20577;-66
2024/04/05 11:58:51;;;;;;;0.87;0.20;;;22.10;87.40;;;;;;5158094;27;20911;-65
2024/04/05 12:01:19;;;;;;;0.60;0.10;;;22.10;90.10;;;;;;5155525;27;20454;-65
2024/04/05 12:03:45;;;;;;;0.33;0.20;;;22.00;90.30;;;;;;5156297;27;20438;-64
2024/04/05 12:06:12;;;;;;;0.30;0.20;;;22.00;90.20;;;;;;5153700;27;20834;-64
2024/04/05 12:08:38;;;;;;;0.80;0.20;;;22.00;90.10;;;;;;5159331;27;20721;-65
2024/04/05 12:11:07;;;;;;;0.40;0.20;;;22.00;90.00;;;;;;5158555;27;20545;-64
2024/04/05 12:13:34;;;;;;;1.57;0.93;;;22.00;90.40;;;;;;5158152;27;20915;-65
2024/04/05 12:16:01;;;;;;;0.40;0.20;;;22.10;90.70;;;;;;5158645;27;20514;-64
2024/04/05 12:18:27;;;;;;;0.40;0.20;;;22.20;90.00;;;;;;5154573;27;20867;-64
2024/04/05 12:20:54;;;;;;;0.60;0.23;;;22.50;89.80;;;;;;5157495;27;20451;-64
2024/04/05 12:23:22;;;;;;;0.30;0.10;;;22.70;87.70;;;;;;5156057;27;20459;-66
2024/04/05 12:25:56;;;;;;;0.40;0.20;;;22.90;86.80;;;;;;5154519;27;20457;-65
2024/04/05 12:28:23;;;;;;;1.37;0.20;;;23.00;84.10;;;;;;5157717;27;20450;-64
2024/04/05 12:30:50;;;;;;;0.40;0.20;;;23.20;85.60;;;;;;5157749;27;20525;-65
2024/04/05 12:33:17;;;;;;;0.60;0.20;;;23.50;83.40;;;;;;5157791;27;20467;-66
2024/04/05 12:35:54;;;;;;;0.50;0.20;;;23.60;81.20;;;;;;5141156;27;20581;-65
2024/04/05 12:38:20;;;;;;;0.40;0.20;;;23.80;82.00;;;;;;5138447;27;20488;-64
2024/04/05 12:40:54;;;;;;;0.77;0.20;;;23.70;78.50;;;;;;5142005;27;20493;-67
2024/04/05 12:43:20;;;;;;;0.40;0.20;;;23.50;79.20;;;;;;5148885;27;20576;-64
2024/04/05 12:45:58;;;;;;;0.80;0.20;;;23.40;81.50;;;;;;5156605;27;20451;-66
2024/04/05 12:48:25;;;;;;;0.40;0.20;;;23.30;78.10;;;;;;5151928;27;20518;-66
2024/04/05 12:50:57;;;;;;;0.40;0.20;;;23.10;79.90;;;;;;5144712;27;20459;-64